Time;durP1;ratioP1;P1;durP2;ratioP2;P2;SDS_P1;SDS_P2;PMS_P1;PMS_P2;Temp;Humidity;BMP_temperature;BMP_pressure;BME280_temperature;BME280_humidity;BME280_pressure;Samples;Min_cycle;Max_cycle;Signal;HPM_P1;HPM_P2
2024/01/02 00:01:36;;;;;;;12.68;3.40;;;;;;;6.37;100.00;99946.88;5112131;27;20076;-79
2024/01/02 00:04:02;;;;;;;11.65;3.17;;;;;;;6.39;100.00;99939.75;5122684;27;20034;-79
2024/01/02 00:06:27;;;;;;;14.20;2.90;;;;;;;6.43;100.00;99938.63;5092612;28;20024;-79
2024/01/02 00:08:53;;;;;;;11.13;3.40;;;;;;;6.43;100.00;99931.63;5124505;27;20578;-79
2024/01/02 00:11:19;;;;;;;18.17;3.47;;;;;;;6.45;100.00;99928.91;5131763;27;20042;-79
2024/01/02 00:13:44;;;;;;;14.07;3.17;;;;;;;6.45;100.00;99924.50;5111581;27;20076;-79
2024/01/02 00:16:10;;;;;;;14.18;3.10;;;;;;;6.48;100.00;99907.75;5115721;27;20047;-80
2024/01/02 00:18:35;;;;;;;13.75;2.83;;;;;;;6.48;100.00;99908.59;5111200;28;20433;-78
2024/01/02 00:21:00;;;;;;;12.00;2.83;;;;;;;6.48;100.00;99887.69;5121708;27;20390;-79
2024/01/02 00:23:26;;;;;;;14.73;3.25;;;;;;;6.50;100.00;99887.59;5113228;27;20019;-79
2024/01/02 00:25:51;;;;;;;12.20;2.97;;;;;;;6.51;100.00;99865.75;5113273;27;20023;-79
2024/01/02 00:28:18;;;;;;;12.77;2.58;;;;;;;6.51;100.00;99863.13;5130523;27;20061;-79
2024/01/02 00:30:43;;;;;;;13.45;2.70;;;;;;;6.52;100.00;99841.28;5131212;27;20498;-79
2024/01/02 00:33:09;;;;;;;11.82;2.15;;;;;;;6.52;100.00;99830.81;5126227;27;20031;-79
2024/01/02 00:35:34;;;;;;;8.93;2.50;;;;;;;6.53;100.00;99814.19;5118725;27;20076;-79
2024/01/02 00:38:00;;;;;;;7.75;2.38;;;;;;;6.51;100.00;99803.03;5111926;27;20020;-79
2024/01/02 00:40:26;;;;;;;9.55;2.20;;;;;;;6.52;100.00;99782.00;5130498;27;20141;-79
2024/01/02 00:42:51;;;;;;;10.68;2.25;;;;;;;6.51;100.00;99771.66;5111741;27;20032;-79
2024/01/02 00:45:17;;;;;;;8.35;2.00;;;;;;;6.51;100.00;99766.44;5124370;27;20586;-79
2024/01/02 00:47:42;;;;;;;9.35;2.28;;;;;;;6.53;100.00;99754.09;5097102;28;20030;-79
2024/01/02 00:50:09;;;;;;;9.93;2.33;;;;;;;6.53;100.00;99744.47;5097425;27;20394;-79
2024/01/02 00:52:34;;;;;;;7.93;1.77;;;;;;;6.54;100.00;99729.63;5121853;27;20044;-79
2024/01/02 00:55:01;;;;;;;8.35;1.90;;;;;;;6.55;100.00;99720.84;5110633;27;20051;-79
2024/01/02 00:57:26;;;;;;;9.02;2.10;;;;;;;6.55;100.00;99707.78;5119696;27;20463;-79
2024/01/02 00:59:52;;;;;;;8.02;1.90;;;;;;;6.56;100.00;99701.59;5124150;27;20111;-78
2024/01/02 01:02:17;;;;;;;5.40;1.42;;;;;;;6.56;100.00;99680.69;5105044;27;20042;-79
2024/01/02 01:04:43;;;;;;;6.28;1.70;;;;;;;6.56;100.00;99681.53;5100397;28;20034;-79
2024/01/02 01:07:09;;;;;;;7.47;1.90;;;;;;;6.58;100.00;99668.34;5131519;27;20094;-79
2024/01/02 01:09:35;;;;;;;6.53;1.85;;;;;;;6.57;100.00;99662.28;5127880;27;20047;-79
2024/01/02 01:12:00;;;;;;;5.22;1.50;;;;;;;6.59;100.00;99659.56;5119132;27;20027;-79
2024/01/02 01:14:25;;;;;;;6.07;1.83;;;;;;;6.58;100.00;99663.94;5111418;28;20083;-79
2024/01/02 01:16:51;;;;;;;5.75;1.40;;;;;;;6.60;100.00;99666.44;5110626;28;20167;-79
2024/01/02 01:19:16;;;;;;;6.45;1.70;;;;;;;6.59;100.00;99649.09;5110237;28;20023;-79
2024/01/02 01:21:41;;;;;;;3.97;1.30;;;;;;;6.59;100.00;99636.03;5116544;27;20027;-79
2024/01/02 01:24:07;;;;;;;6.18;1.35;;;;;;;6.59;100.00;99626.41;5111133;27;20027;-79
2024/01/02 01:26:32;;;;;;;3.55;1.23;;;;;;;6.61;100.00;99621.06;5130395;27;20034;-79
2024/01/02 01:28:58;;;;;;;4.90;1.20;;;;;;;6.62;100.00;99608.81;5109486;27;20021;-79
2024/01/02 01:31:23;;;;;;;3.83;1.20;;;;;;;6.63;100.00;99593.03;5110923;27;20119;-79
2024/01/02 01:33:48;;;;;;;3.97;1.13;;;;;;;6.66;100.00;99581.50;5111299;27;20106;-79
2024/01/02 01:36:14;;;;;;;3.15;1.00;;;;;;;6.67;100.00;99567.47;5091228;28;20494;-79
2024/01/02 01:38:39;;;;;;;4.40;1.10;;;;;;;6.67;100.00;99560.47;5098037;27;20019;-79
2024/01/02 01:41:05;;;;;;;3.42;1.00;;;;;;;6.66;100.00;99564.03;5120222;27;20054;-79
2024/01/02 01:43:30;;;;;;;3.30;1.00;;;;;;;6.67;100.00;99547.41;5120441;27;20027;-79
2024/01/02 01:45:56;;;;;;;4.10;1.38;;;;;;;6.69;100.00;99552.50;5116249;27;20034;-79
2024/01/02 01:48:21;;;;;;;2.53;1.00;;;;;;;6.69;100.00;99526.38;5118248;27;20023;-79
2024/01/02 01:50:48;;;;;;;4.00;0.90;;;;;;;6.69;100.00;99514.13;5129350;27;20205;-79
2024/01/02 01:53:15;;;;;;;3.75;0.98;;;;;;;6.69;100.00;99506.28;5114547;27;20518;-79
2024/01/02 01:55:41;;;;;;;2.15;0.90;;;;;;;6.72;100.00;99513.06;5107845;27;20398;-79
2024/01/02 01:58:07;;;;;;;2.85;0.90;;;;;;;6.72;100.00;99503.44;5091784;27;20474;-79
2024/01/02 02:00:33;;;;;;;2.33;0.90;;;;;;;6.73;100.00;99492.03;5112969;27;20050;-79
2024/01/02 02:02:59;;;;;;;1.60;0.70;;;;;;;6.74;100.00;99488.47;5108184;27;20428;-79
2024/01/02 02:05:28;;;;;;;2.20;0.75;;;;;;;6.76;100.00;99472.66;5110005;27;20467;-79
2024/01/02 02:07:55;;;;;;;2.38;0.70;;;;;;;6.75;100.00;99460.53;5122940;27;20110;-79
2024/01/02 02:10:20;;;;;;;4.30;0.80;;;;;;;6.74;100.00;99464.94;5104358;28;20483;-79
2024/01/02 02:12:46;;;;;;;3.30;0.70;;;;;;;6.76;100.00;99449.13;5109872;28;20062;-79
2024/01/02 02:15:11;;;;;;;2.53;0.98;;;;;;;6.76;100.00;99442.13;5116875;27;20054;-79
2024/01/02 02:17:37;;;;;;;4.10;0.60;;;;;;;6.76;100.00;99431.66;5129971;27;20678;-79
2024/01/02 02:20:03;;;;;;;1.75;0.52;;;;;;;6.79;100.00;99420.94;5101138;27;20040;-79
2024/01/02 02:22:36;;;;;;;3.22;0.70;;;;;;;6.80;100.00;99414.78;5128538;27;20068;-79
2024/01/02 02:25:02;;;;;;;2.88;0.95;;;;;;;6.82;100.00;99402.44;5096965;27;20027;-79
2024/01/02 02:27:28;;;;;;;1.52;0.43;;;;;;;6.84;100.00;99386.63;5120438;27;20019;-79
2024/01/02 02:29:53;;;;;;;1.98;0.60;;;;;;;6.85;100.00;99389.13;5126401;27;20027;-79
2024/01/02 02:32:21;;;;;;;1.25;0.45;;;;;;;6.88;100.00;99383.63;5130111;27;20110;-79
2024/01/02 02:34:46;;;;;;;1.77;0.50;;;;;;;6.88;100.00;99381.00;5129479;27;20023;-79
2024/01/02 02:37:12;;;;;;;2.58;0.60;;;;;;;6.90;100.00;99355.56;5129885;27;20061;-79
2024/01/02 02:39:37;;;;;;;1.65;0.63;;;;;;;6.90;100.00;99337.28;5111678;27;20482;-78
2024/01/02 02:42:03;;;;;;;1.30;0.52;;;;;;;6.91;100.00;99331.09;5128557;27;20572;-79
2024/01/02 02:44:28;;;;;;;0.50;0.30;;;;;;;6.92;100.00;99337.16;5126880;27;20027;-78
2024/01/02 02:46:53;;;;;;;1.58;0.40;;;;;;;6.94;100.00;99326.56;5112356;27;20043;-79
2024/01/02 02:49:19;;;;;;;1.58;0.47;;;;;;;6.94;100.00;99329.16;5088893;28;20088;-78
2024/01/02 02:51:44;;;;;;;1.20;0.50;;;;;;;6.96;100.00;99324.66;5090310;28;20031;-78
2024/01/02 02:54:10;;;;;;;2.00;0.70;;;;;;;6.95;100.00;99325.59;5109306;28;20460;-78
2024/01/02 02:56:35;;;;;;;0.63;0.40;;;;;;;6.95;100.00;99304.69;5114596;27;20036;-79
2024/01/02 02:59:00;;;;;;;0.52;0.40;;;;;;;6.96;100.00;99282.81;5125407;27;20011;-79
2024/01/02 03:01:26;;;;;;;0.82;0.40;;;;;;;6.97;100.00;99271.38;5105416;28;20049;-79
2024/01/02 03:03:51;;;;;;;1.02;0.50;;;;;;;6.98;100.00;99273.03;5113365;27;20079;-79
2024/01/02 03:06:16;;;;;;;1.50;0.50;;;;;;;6.97;100.00;99268.78;5100371;28;20321;-79
2024/01/02 03:08:42;;;;;;;1.83;0.38;;;;;;;6.98;100.00;99246.91;5115601;27;20043;-79
2024/01/02 03:11:07;;;;;;;1.20;0.55;;;;;;;6.99;100.00;99230.25;5094306;28;20034;-78
2024/01/02 03:13:33;;;;;;;1.10;0.60;;;;;;;7.00;100.00;99224.06;5089873;28;20492;-77
2024/01/02 03:15:58;;;;;;;0.77;0.40;;;;;;;7.01;100.00;99216.09;5113723;28;20474;-78
2024/01/02 03:18:23;;;;;;;1.17;0.50;;;;;;;7.03;100.00;99213.34;5102737;28;20387;-78
2024/01/02 03:20:49;;;;;;;0.47;0.30;;;;;;;7.04;100.00;99194.91;5116025;27;20106;-78
2024/01/02 03:23:14;;;;;;;0.60;0.30;;;;;;;7.05;100.00;99188.72;5121331;27;20072;-78
2024/01/02 03:25:40;;;;;;;0.65;0.40;;;;;;;7.08;100.00;99179.78;5118699;28;20032;-79
2024/01/02 03:28:05;;;;;;;0.70;0.50;;;;;;;7.10;100.00;99186.53;5121078;28;20031;-78
2024/01/02 03:30:31;;;;;;;1.02;0.30;;;;;;;7.11;100.00;99169.06;5104895;27;20027;-79
2024/01/02 03:32:56;;;;;;;0.70;0.30;;;;;;;7.13;100.00;99172.34;5115073;27;20034;-79
2024/01/02 03:35:22;;;;;;;0.75;0.30;;;;;;;7.15;100.00;99154.75;5112605;27;20030;-79
2024/01/02 03:37:47;;;;;;;1.13;0.30;;;;;;;7.18;100.00;99146.63;5109497;27;20023;-79
2024/01/02 03:40:14;;;;;;;1.00;0.40;;;;;;;7.19;100.00;99151.72;5102398;28;20051;-79
2024/01/02 03:42:40;;;;;;;1.02;0.40;;;;;;;7.22;100.00;99156.72;5113492;27;20031;-80
2024/01/02 03:45:06;;;;;;;0.50;0.50;;;;;;;7.23;100.00;99147.09;5117288;27;20019;-80
2024/01/02 03:47:32;;;;;;;0.40;0.40;;;;;;;7.26;100.00;99146.00;5094379;28;20475;-79
2024/01/02 03:49:58;;;;;;;0.65;0.40;;;;;;;7.28;100.00;99144.06;5095537;28;20023;-80
2024/01/02 03:52:23;;;;;;;1.65;0.50;;;;;;;7.28;100.00;99144.88;5095809;27;20506;-79
2024/01/02 03:54:49;;;;;;;0.50;0.50;;;;;;;7.31;100.00;99128.09;5122183;27;20042;-79
2024/01/02 03:57:14;;;;;;;1.10;0.70;;;;;;;7.35;100.00;99129.47;5115663;27;20387;-79
2024/01/02 03:59:39;;;;;;;1.17;0.50;;;;;;;7.39;100.00;99125.63;5100474;28;20024;-79
2024/01/02 04:02:05;;;;;;;0.75;0.60;;;;;;;7.43;100.00;99116.53;5113161;27;20403;-79
2024/01/02 04:04:31;;;;;;;0.65;0.50;;;;;;;7.47;100.00;99123.16;5111890;27;20537;-79
2024/01/02 04:06:56;;;;;;;1.00;0.60;;;;;;;7.49;100.00;99114.19;5105064;27;20022;-79
2024/01/02 04:09:22;;;;;;;1.50;0.60;;;;;;;7.50;100.00;99108.00;5121748;27;20058;-79
2024/01/02 04:11:49;;;;;;;0.60;0.60;;;;;;;7.55;100.00;99116.28;5114674;27;20425;-79
2024/01/02 04:14:18;;;;;;;0.85;0.70;;;;;;;7.58;100.00;99109.94;5102673;27;20035;-80
2024/01/02 04:16:43;;;;;;;0.90;0.80;;;;;;;7.61;100.00;99108.84;5127703;27;20022;-79
2024/01/02 04:19:08;;;;;;;1.42;0.60;;;;;;;7.64;100.00;99100.72;5091882;28;20044;-80
2024/01/02 04:21:34;;;;;;;0.73;0.50;;;;;;;7.68;100.00;99094.25;5077117;28;20471;-79
2024/01/02 04:23:59;;;;;;;0.50;0.50;;;;;;;7.70;100.00;99098.38;5120401;27;20390;-79
2024/01/02 04:26:25;;;;;;;0.50;0.50;;;;;;;7.75;100.00;99084.88;5105903;27;20092;-79
2024/01/02 04:28:50;;;;;;;1.20;0.50;;;;;;;7.79;100.00;99099.34;5096894;27;20020;-79
2024/01/02 04:31:16;;;;;;;0.40;0.40;;;;;;;7.83;100.00;99095.47;5095157;27;20146;-80
2024/01/02 04:33:41;;;;;;;0.40;0.40;;;;;;;7.85;100.00;99091.75;5112184;27;20038;-80
2024/01/02 04:36:07;;;;;;;0.57;0.40;;;;;;;7.91;100.00;99084.28;5116897;27;20023;-80
2024/01/02 04:38:32;;;;;;;0.55;0.40;;;;;;;7.95;100.00;99085.66;5098803;27;20023;-79
2024/01/02 04:41:00;;;;;;;0.80;0.40;;;;;;;7.99;100.00;99084.41;5126574;27;20880;-80
2024/01/02 04:43:27;;;;;;;0.63;0.40;;;;;;;8.02;100.00;99092.84;5095376;27;20030;-79
2024/01/02 04:45:53;;;;;;;1.95;0.60;;;;;;;8.05;100.00;99092.56;5098619;27;20062;-80
2024/01/02 04:48:18;;;;;;;0.68;0.38;;;;;;;8.09;100.00;99078.22;5112673;27;20031;-80
2024/01/02 04:50:44;;;;;;;0.63;0.30;;;;;;;8.14;100.00;99088.28;5123412;27;20031;-80
2024/01/02 04:53:09;;;;;;;0.40;0.40;;;;;;;8.20;100.00;99081.63;5112559;27;20023;-80
2024/01/02 04:55:34;;;;;;;0.85;0.50;;;;;;;8.23;100.00;99078.72;5095699;27;20154;-80
2024/01/02 04:58:02;;;;;;;0.40;0.40;;;;;;;8.28;100.00;99079.13;5112720;27;20080;-80
2024/01/02 05:00:27;;;;;;;0.73;0.40;;;;;;;8.33;100.00;99069.03;5115365;27;20076;-80
2024/01/02 05:02:53;;;;;;;0.50;0.47;;;;;;;8.39;100.00;99089.47;5108713;27;20032;-80
2024/01/02 05:05:18;;;;;;;0.50;0.50;;;;;;;8.45;100.00;99083.69;5092302;28;20028;-80
2024/01/02 05:07:43;;;;;;;0.50;0.50;;;;;;;8.52;100.00;99089.16;5097097;27;20494;-80
2024/01/02 05:10:09;;;;;;;0.55;0.55;;;;;;;8.56;100.00;99088.72;5116520;27;20040;-80
2024/01/02 05:12:35;;;;;;;0.60;0.60;;;;;;;8.62;100.00;99096.00;5123119;27;20423;-80
2024/01/02 05:15:00;;;;;;;0.50;0.50;;;;;;;8.64;100.00;99088.84;5115819;27;20028;-80
2024/01/02 05:17:25;;;;;;;1.40;0.70;;;;;;;8.70;100.00;99088.25;5092261;28;20076;-80
2024/01/02 05:19:51;;;;;;;0.80;0.80;;;;;;;8.74;100.00;99089.59;5101623;27;20049;-81
2024/01/02 05:22:16;;;;;;;0.73;0.73;;;;;;;8.78;100.00;99090.97;5114094;27;20130;-80
2024/01/02 05:24:42;;;;;;;0.80;0.80;;;;;;;8.86;100.00;99089.44;5125394;27;20033;-80
2024/01/02 05:27:07;;;;;;;1.25;0.80;;;;;;;8.86;100.00;99094.69;5111640;27;20050;-80
2024/01/02 05:29:35;;;;;;;0.82;0.80;;;;;;;8.91;100.00;99092.44;5125681;27;20054;-80
2024/01/02 05:32:01;;;;;;;0.90;0.90;;;;;;;8.99;100.00;99089.91;5129790;27;20106;-80
2024/01/02 05:34:28;;;;;;;1.52;0.80;;;;;;;9.02;100.00;99081.75;5120916;27;20110;-80
2024/01/02 05:36:54;;;;;;;1.08;0.90;;;;;;;9.08;100.00;99091.66;5109466;27;20031;-81
2024/01/02 05:39:19;;;;;;;0.80;0.70;;;;;;;9.10;100.00;99079.22;5127264;27;20071;-80
2024/01/02 05:41:44;;;;;;;0.77;0.77;;;;;;;9.16;100.00;99077.78;5111208;27;20436;-81
2024/01/02 05:44:10;;;;;;;0.70;0.70;;;;;;;9.21;100.00;99081.66;5108215;27;20022;-81
2024/01/02 05:46:35;;;;;;;0.68;0.68;;;;;;;9.22;100.00;99083.28;5129806;27;20030;-81
2024/01/02 05:49:01;;;;;;;0.80;0.70;;;;;;;9.27;100.00;99095.97;5110919;27;20015;-81
2024/01/02 05:51:26;;;;;;;0.50;0.50;;;;;;;9.29;100.00;99096.66;5098457;28;20036;-81
2024/01/02 05:53:51;;;;;;;0.93;0.65;;;;;;;9.34;100.00;99108.34;5112944;27;20027;-80
2024/01/02 05:56:17;;;;;;;0.95;0.60;;;;;;;9.34;100.00;99095.22;5116766;27;20538;-80
2024/01/02 05:58:42;;;;;;;0.55;0.55;;;;;;;9.39;100.00;99111.34;5102026;27;20019;-81
2024/01/02 06:01:08;;;;;;;0.45;0.45;;;;;;;9.39;100.00;99116.59;5120599;27;20535;-80
2024/01/02 06:03:33;;;;;;;2.15;0.68;;;;;;;9.43;100.00;99115.31;5115451;27;20027;-80
2024/01/02 06:05:58;;;;;;;0.50;0.50;;;;;;;9.49;100.00;99123.56;5110030;27;20019;-80
2024/01/02 06:08:24;;;;;;;0.47;0.40;;;;;;;9.50;100.00;99119.97;5120000;27;20047;-80
2024/01/02 06:10:49;;;;;;;1.98;0.50;;;;;;;9.50;100.00;99126.06;5099566;27;20035;-80
2024/01/02 06:13:15;;;;;;;0.63;0.50;;;;;;;9.52;100.00;99131.16;5103897;28;20403;-80
2024/01/02 06:15:40;;;;;;;1.48;0.50;;;;;;;9.55;100.00;99129.06;5095855;27;20031;-80
2024/01/02 06:18:06;;;;;;;0.30;0.30;;;;;;;9.59;100.00;99137.44;5123650;27;20043;-80
2024/01/02 06:20:31;;;;;;;1.45;0.43;;;;;;;9.59;100.00;99137.44;5108859;28;20024;-80
2024/01/02 06:22:57;;;;;;;0.60;0.60;;;;;;;9.60;100.00;99128.59;5091388;28;20548;-80
2024/01/02 06:25:22;;;;;;;0.70;0.70;;;;;;;9.64;100.00;99135.22;5117732;27;20115;-80
2024/01/02 06:27:48;;;;;;;0.70;0.70;;;;;;;9.65;100.00;99147.38;5126573;27;20019;-80
2024/01/02 06:30:13;;;;;;;1.50;1.10;;;;;;;9.70;100.00;99155.63;5117818;27;20500;-80
2024/01/02 06:32:38;;;;;;;1.83;1.45;;;;;;;9.68;100.00;99158.41;5100256;28;20035;-80
2024/01/02 06:35:04;;;;;;;3.17;2.10;;;;;;;9.73;100.00;99160.59;5119300;27;20025;-78
2024/01/02 06:37:29;;;;;;;3.35;2.60;;;;;;;9.76;100.00;99160.28;5097760;28;20526;-79
2024/01/02 06:39:55;;;;;;;3.00;2.70;;;;;;;9.76;100.00;99154.22;5100462;27;20368;-79
2024/01/02 06:42:20;;;;;;;4.50;3.95;;;;;;;9.80;100.00;99160.81;5098013;28;20028;-80
2024/01/02 06:44:46;;;;;;;5.40;4.35;;;;;;;9.81;100.00;99155.41;5116193;27;20046;-80
2024/01/02 06:47:11;;;;;;;5.82;4.90;;;;;;;9.85;100.00;99155.94;5121084;27;20023;-79
2024/01/02 06:49:37;;;;;;;6.75;5.00;;;;;;;9.88;100.00;99164.34;5106195;27;20076;-79
2024/01/02 06:52:02;;;;;;;6.90;4.95;;;;;;;9.88;100.00;99163.50;5121596;27;20424;-80
2024/01/02 06:54:28;;;;;;;5.40;4.70;;;;;;;9.89;100.00;99160.72;5111586;27;20429;-81
2024/01/02 06:56:53;;;;;;;6.43;5.68;;;;;;;9.92;100.00;99165.69;5113724;27;20111;-81
2024/01/02 06:59:18;;;;;;;6.20;5.60;;;;;;;9.94;100.00;99163.72;5113008;28;20079;-80
2024/01/02 07:01:44;;;;;;;7.85;6.50;;;;;;;9.98;100.00;99180.00;5117428;28;20035;-80
2024/01/02 07:04:09;;;;;;;9.05;6.50;;;;;;;10.00;100.00;99178.06;5100448;28;20031;-80
2024/01/02 07:06:35;;;;;;;8.23;6.60;;;;;;;10.00;100.00;99188.56;5117610;27;20027;-80
2024/01/02 07:09:00;;;;;;;8.52;6.60;;;;;;;10.02;100.00;99200.63;5105233;27;20091;-80
2024/01/02 07:11:26;;;;;;;9.38;6.32;;;;;;;10.02;100.00;99192.72;5123204;27;20027;-80
2024/01/02 07:13:51;;;;;;;9.80;7.88;;;;;;;10.07;100.00;99204.59;5127692;27;20361;-80
2024/01/02 07:16:16;;;;;;;9.32;7.47;;;;;;;10.09;100.00;99200.00;5110087;28;20095;-80
2024/01/02 07:18:42;;;;;;;9.27;7.18;;;;;;;10.10;100.00;99194.59;5123335;27;20023;-80
2024/01/02 07:21:08;;;;;;;11.82;7.93;;;;;;;10.11;100.00;99201.50;5108849;28;20028;-80
2024/01/02 07:23:34;;;;;;;9.13;7.55;;;;;;;10.12;100.00;99197.06;5108010;28;20031;-80
2024/01/02 07:25:59;;;;;;;12.45;7.28;;;;;;;10.13;100.00;99199.53;5109804;28;20029;-80
2024/01/02 07:28:25;;;;;;;11.68;7.00;;;;;;;10.15;100.00;99218.63;5128006;28;20035;-80
2024/01/02 07:30:51;;;;;;;9.77;6.75;;;;;;;10.18;100.00;99217.50;5114311;28;20062;-81
2024/01/02 07:33:16;;;;;;;9.68;7.00;;;;;;;10.19;100.00;99225.22;5110431;28;20057;-81
2024/01/02 07:35:42;;;;;;;9.90;6.97;;;;;;;10.20;100.00;99218.16;5111350;28;20051;-81
2024/01/02 07:38:08;;;;;;;10.05;6.82;;;;;;;10.22;100.00;99224.13;5108593;28;20451;-80
2024/01/02 07:40:33;;;;;;;9.90;7.05;;;;;;;10.22;100.00;99222.31;5129327;28;20047;-80
2024/01/02 07:42:58;;;;;;;11.13;6.43;;;;;;;10.23;100.00;99225.78;5128507;28;20027;-80
2024/01/02 07:45:24;;;;;;;10.38;6.43;;;;;;;10.23;100.00;99226.59;5108374;28;20024;-80
2024/01/02 07:47:49;;;;;;;8.80;5.78;;;;;;;10.25;100.00;99239.59;5104402;28;20058;-80
2024/01/02 07:50:18;;;;;;;8.23;5.78;;;;;;;10.25;100.00;99239.59;5105973;28;20034;-80
2024/01/02 07:52:43;;;;;;;11.13;5.88;;;;;;;10.26;100.00;99243.88;5107888;28;20077;-80
2024/01/02 07:55:10;;;;;;;9.23;5.47;;;;;;;10.26;100.00;99241.25;5107891;28;20019;-80
2024/01/02 07:57:36;;;;;;;10.85;5.85;;;;;;;10.27;100.00;99240.25;5107186;28;20019;-80
2024/01/02 08:00:01;;;;;;;9.13;5.65;;;;;;;10.25;100.00;99235.16;5107390;28;20020;-80
2024/01/02 08:02:27;;;;;;;10.82;6.07;;;;;;;10.26;100.00;99241.25;5093639;28;20111;-80
2024/01/02 08:04:52;;;;;;;12.02;5.32;;;;;;;10.25;100.00;99247.47;5089124;28;20454;-80
2024/01/02 08:07:17;;;;;;;10.20;4.97;;;;;;;10.26;100.00;99251.75;5111184;28;20035;-80
2024/01/02 08:09:43;;;;;;;10.80;4.95;;;;;;;10.27;100.00;99253.41;5125597;28;20080;-80
2024/01/02 08:12:08;;;;;;;12.60;4.72;;;;;;;10.28;100.00;99249.81;5124350;28;20154;-80
2024/01/02 08:14:34;;;;;;;9.65;4.45;;;;;;;10.29;100.00;99248.81;5110085;27;20431;-81
2024/01/02 08:16:59;;;;;;;12.45;5.03;;;;;;;10.32;100.00;99251.16;5119667;27;20019;-81
2024/01/02 08:19:25;;;;;;;11.27;5.20;;;;;;;10.32;100.00;99256.41;5131178;27;20023;-80
2024/01/02 08:21:50;;;;;;;9.85;4.75;;;;;;;10.32;100.00;99254.59;5114657;27;20031;-80
2024/01/02 08:24:15;;;;;;;8.73;4.80;;;;;;;10.33;100.00;99256.25;5109729;27;20054;-80
2024/01/02 08:26:41;;;;;;;10.50;5.00;;;;;;;10.35;100.00;99262.19;5131663;27;20027;-80
2024/01/02 08:29:06;;;;;;;8.73;4.95;;;;;;;10.38;100.00;99271.56;5112120;27;20433;-81
2024/01/02 08:31:34;;;;;;;9.15;4.65;;;;;;;10.39;100.00;99269.78;5118051;27;20035;-80
2024/01/02 08:33:59;;;;;;;10.57;5.38;;;;;;;10.39;100.00;99267.13;5111856;27;20030;-81
2024/01/02 08:36:24;;;;;;;8.10;5.15;;;;;;;10.39;100.00;99252.19;5143533;27;20026;-81
2024/01/02 08:38:50;;;;;;;8.60;5.00;;;;;;;10.41;100.00;99255.53;5129059;27;20019;-80
2024/01/02 08:41:18;;;;;;;10.88;5.00;;;;;;;10.43;100.00;99250.13;5124328;27;20517;-81
2024/01/02 08:43:44;;;;;;;8.10;4.88;;;;;;;10.45;100.00;99246.34;5093767;27;20022;-80
2024/01/02 08:46:09;;;;;;;9.52;4.72;;;;;;;10.46;100.00;99253.25;5114007;27;20023;-81
2024/01/02 08:48:35;;;;;;;8.45;4.65;;;;;;;10.47;100.00;99246.19;5114180;27;20038;-80
2024/01/02 08:51:00;;;;;;;8.10;4.68;;;;;;;10.48;100.00;99245.22;5100729;28;20027;-79
2024/01/02 08:53:26;;;;;;;9.18;4.75;;;;;;;10.52;100.00;99243.94;5109661;27;20062;-79
2024/01/02 08:55:51;;;;;;;8.45;5.00;;;;;;;10.54;100.00;99241.97;5152561;27;20029;-80
2024/01/02 08:58:16;;;;;;;7.63;4.35;;;;;;;10.57;100.00;99236.41;5123984;27;20380;-80
2024/01/02 09:00:42;;;;;;;7.10;4.43;;;;;;;10.57;100.00;99234.59;5116451;27;20414;-80
2024/01/02 09:03:10;;;;;;;7.30;4.25;;;;;;;10.59;100.00;99237.91;5112716;27;20406;-80
2024/01/02 09:05:36;;;;;;;6.65;4.13;;;;;;;10.59;100.00;99234.44;5129550;27;20031;-80
2024/01/02 09:08:04;;;;;;;5.40;3.95;;;;;;;10.60;100.00;99234.31;5128713;27;20066;-81
2024/01/02 09:10:29;;;;;;;4.63;3.85;;;;;;;10.62;100.00;99237.59;5129691;27;20050;-80
2024/01/02 09:12:55;;;;;;;3.45;3.15;;;;;;;10.63;100.00;99225.28;5113717;27;20020;-80
2024/01/02 09:15:20;;;;;;;3.60;3.13;;;;;;;10.63;100.00;99223.47;5140975;27;20008;-80
2024/01/02 09:17:46;;;;;;;3.95;3.00;;;;;;;10.63;100.00;99222.66;5124156;27;20176;-80
2024/01/02 09:20:11;;;;;;;3.28;3.05;;;;;;;10.62;100.00;99221.00;5108515;27;20024;-81
2024/01/02 09:22:37;;;;;;;3.28;2.97;;;;;;;10.62;100.00;99211.31;5091793;27;20036;-78
2024/01/02 09:25:02;;;;;;;3.03;2.70;;;;;;;10.62;100.00;99205.22;5118227;27;20034;-78
2024/01/02 09:27:29;;;;;;;4.18;2.70;;;;;;;10.62;100.00;99210.47;5110610;28;20392;-81
2024/01/02 09:29:56;;;;;;;3.00;2.70;;;;;;;10.60;100.00;99194.84;5109622;28;20027;-80
2024/01/02 09:32:21;;;;;;;3.03;2.70;;;;;;;10.60;100.00;99196.66;5109963;27;20042;-79
2024/01/02 09:34:47;;;;;;;2.83;2.63;;;;;;;10.59;100.00;99200.25;5091784;28;20027;-80
2024/01/02 09:37:12;;;;;;;3.33;2.53;;;;;;;10.57;100.00;99189.91;5109079;28;20023;-79
2024/01/02 09:39:38;;;;;;;3.50;2.88;;;;;;;10.58;100.00;99203.88;5125777;27;20482;-79
2024/01/02 09:42:13;;;;;;;4.57;3.25;;;;;;;10.58;100.00;99199.44;5121521;27;20538;-79
2024/01/02 09:45:05;;;;;;;2.85;2.50;;;;;;;10.60;100.00;99208.00;5119095;27;20031;-79
2024/01/02 09:47:36;;;;;;;2.70;2.50;;;;;;;10.59;100.00;99202.91;5110364;27;20463;-79
2024/01/02 09:50:10;;;;;;;2.47;2.28;;;;;;;10.58;100.00;99202.06;5099968;27;20031;-77
2024/01/02 09:52:48;;;;;;;2.15;1.92;;;;;;;10.58;100.00;99198.63;5127317;27;20034;-79
2024/01/02 09:55:29;;;;;;;4.45;2.00;;;;;;;10.60;100.00;99196.66;5100099;28;20085;-79
2024/01/02 09:58:24;;;;;;;2.20;1.90;;;;;;;10.62;100.00;99192.06;5116936;27;20057;-80
2024/01/02 10:01:20;;;;;;;2.25;1.90;;;;;;;10.63;100.00;99202.44;5139514;27;20035;-80
2024/01/02 10:04:10;;;;;;;1.60;1.50;;;;;;;10.63;100.00;99202.44;5109765;28;20106;-79
2024/01/02 10:07:03;;;;;;;2.47;2.03;;;;;;;10.66;100.00;99196.84;5115366;27;20183;-79
2024/01/02 10:09:50;;;;;;;1.35;1.25;;;;;;;10.65;100.00;99197.84;5127502;27;20046;-79
2024/01/02 10:12:35;;;;;;;1.92;1.20;;;;;;;10.68;100.00;99199.34;5109285;27;20076;-80
2024/01/02 10:15:16;;;;;;;1.27;1.10;;;;;;;10.70;100.00;99191.28;5097759;27;20050;-80
2024/01/02 10:18:16;;;;;;;0.90;0.90;;;;;;;10.75;100.00;99186.38;5103902;28;20038;-80
2024/01/02 10:21:00;;;;;;;1.20;1.10;;;;;;;10.76;100.00;99180.13;5075812;28;20044;-80
2024/01/02 10:23:50;;;;;;;2.85;1.27;;;;;;;10.76;100.00;99178.34;5100332;28;20122;-80
2024/01/02 10:26:19;;;;;;;1.30;1.20;;;;;;;10.74;100.00;99180.28;5097815;28;20456;-80
2024/01/02 10:28:49;;;;;;;1.50;1.20;;;;;;;10.74;100.00;99174.22;5117678;27;20031;-80
2024/01/02 10:31:41;;;;;;;1.10;1.00;;;;;;;10.74;100.00;99167.13;5108815;27;20072;-80
2024/01/02 10:34:30;;;;;;;1.42;1.17;;;;;;;10.74;100.00;99161.88;5117232;27;20032;-80
2024/01/02 10:37:05;;;;;;;2.03;1.10;;;;;;;10.76;100.00;99174.88;5100956;28;20438;-81
2024/01/02 10:39:44;;;;;;;1.15;1.05;;;;;;;10.76;100.00;99167.81;5102338;27;20026;-80
2024/01/02 10:42:31;;;;;;;1.33;0.98;;;;;;;10.77;100.00;99155.47;5100873;27;20538;-80
2024/01/02 10:44:59;;;;;;;2.03;0.90;;;;;;;10.76;100.00;99154.66;5098218;28;20038;-80
2024/01/02 10:47:33;;;;;;;1.45;0.90;;;;;;;10.77;100.00;99155.47;5096815;28;20085;-80
2024/01/02 10:50:03;;;;;;;2.75;1.00;;;;;;;10.76;100.00;99151.19;5093443;28;20039;-80
2024/01/02 10:52:57;;;;;;;1.40;0.70;;;;;;;10.74;100.00;99143.47;5117657;27;20028;-79
2024/01/02 10:55:29;;;;;;;1.13;0.80;;;;;;;10.73;100.00;99146.25;5108533;28;20082;-79
2024/01/02 10:58:17;;;;;;;1.33;0.60;;;;;;;10.75;100.00;99154.81;5127273;27;20447;-79
2024/01/02 11:00:52;;;;;;;0.60;0.50;;;;;;;10.71;100.00;99150.84;5100337;27;20079;-79
2024/01/02 11:03:19;;;;;;;1.42;0.50;;;;;;;10.68;100.00;99149.34;5111800;27;20305;-80
2024/01/02 11:05:53;;;;;;;2.78;0.55;;;;;;;10.66;100.00;99132.91;5098555;27;20118;-78
2024/01/02 11:08:27;;;;;;;0.63;0.40;;;;;;;10.64;100.00;99124.34;5102588;27;20176;-79
2024/01/02 11:11:00;;;;;;;1.13;0.50;;;;;;;10.63;100.00;99128.78;5130255;27;20023;-79
2024/01/02 11:13:30;;;;;;;0.85;0.40;;;;;;;10.63;100.00;99123.53;5125619;27;20031;-79
2024/01/02 11:16:11;;;;;;;0.68;0.30;;;;;;;10.59;100.00;99119.56;5106441;28;20027;-79
2024/01/02 11:18:40;;;;;;;1.05;0.40;;;;;;;10.53;100.00;99114.94;5121091;27;20019;-78
2024/01/02 11:21:28;;;;;;;1.55;0.40;;;;;;;10.54;100.00;99113.13;5113000;28;20023;-78
2024/01/02 11:23:56;;;;;;;0.50;0.40;;;;;;;10.49;100.00;99097.81;5114666;28;20034;-79
2024/01/02 11:26:27;;;;;;;0.55;0.40;;;;;;;10.48;100.00;99095.34;5115391;28;20352;-79
2024/01/02 11:28:57;;;;;;;1.23;0.47;;;;;;;10.45;100.00;99088.59;5111893;28;20048;-79
2024/01/02 11:31:25;;;;;;;1.23;0.50;;;;;;;10.42;100.00;99094.16;5090973;28;20119;-79